Data for 04/25/2015

Time Sea-Level Adjusted Pressure Absolute Pressure Temperature Relative Humidity Dew Point   
(mb) (inHg) (mb) (inHg) (C) (F) (%) (C) (F)
00:05 1010 29.83 839 24.78 0.6 33.1 94 -0.2 31.7
00:10 1010 29.83 839 24.78 0.6 33.1 94 -0.2 31.6
00:15 1010 29.83 839 24.78 0.5 32.9 94 -0.3 31.5
00:20 1010 29.83 839 24.78 0.5 32.8 95 -0.3 31.4
00:25 1010 29.83 839 24.78 0.5 32.9 94 -0.3 31.4
00:30 1010 29.83 839 24.78 0.5 32.8 95 -0.3 31.4
00:35 1010 29.83 839 24.78 0.4 32.8 95 -0.3 31.4
00:40 1010 29.83 839 24.78 0.4 32.8 95 -0.3 31.4
00:45 1010 29.83 839 24.78 0.4 32.7 95 -0.4 31.3
00:50 1010 29.83 839 24.78 0.4 32.6 95 -0.4 31.3
00:55 1010 29.83 839 24.78 0.4 32.7 95 -0.4 31.3
01:00 1010 29.83 839 24.78 0.4 32.8 95 -0.3 31.5
01:05 1010 29.83 839 24.78 0.4 32.8 95 -0.3 31.5
01:10 1010 29.83 839 24.78 0.4 32.6 95 -0.4 31.3
01:15 1010 29.83 839 24.78 0.3 32.6 95 -0.4 31.3
01:20 1010 29.83 839 24.78 0.3 32.6 95 -0.4 31.3
01:25 1010 29.83 839 24.78 0.4 32.7 95 -0.3 31.4
01:30 1010 29.83 839 24.78 0.4 32.7 95 -0.3 31.4
01:35 1010 29.83 839 24.78 0.3 32.6 95 -0.4 31.3
01:40 1010 29.83 839 24.78 0.3 32.6 95 -0.4 31.3
01:45 1010 29.83 839 24.78 0.3 32.6 95 -0.4 31.3
01:50 1010 29.83 839 24.78 0.3 32.5 95 -0.4 31.2
01:55 1010 29.83 839 24.78 0.3 32.5 95 -0.4 31.2
02:00 1010 29.83 839 24.78 0.3 32.5 95 -0.4 31.3
02:05 1010 29.83 839 24.78 0.4 32.7 95 -0.3 31.4
02:10 1010 29.83 839 24.78 0.3 32.6 95 -0.4 31.3
02:15 1010 29.83 839 24.78 0.3 32.5 95 -0.4 31.3
02:20 1010 29.83 839 24.78 0.3 32.5 95 -0.4 31.2
02:25 1010 29.83 839 24.78 0.3 32.5 95 -0.4 31.3
02:30 1010 29.83 839 24.78 0.3 32.6 95 -0.4 31.3
02:35 1010 29.83 839 24.78 0.3 32.6 95 -0.4 31.4
02:40 1010 29.83 839 24.78 0.3 32.6 95 -0.4 31.3
02:45 1010 29.83 839 24.78 0.3 32.6 95 -0.3 31.4
02:50 1010 29.83 839 24.78 0.4 32.7 95 -0.3 31.5
02:55 1010 29.83 839 24.78 0.4 32.8 95 -0.3 31.5
03:00 1010 29.83 840 24.81 0.3 32.6 95 -0.4 31.3
03:05 1010 29.83 840 24.81 0.3 32.6 95 -0.4 31.3
03:10 1010 29.83 840 24.81 0.4 32.6 95 -0.3 31.4
03:15 1010 29.83 840 24.81 0.4 32.7 95 -0.3 31.4
03:20 1010 29.83 840 24.81 0.4 32.7 95 -0.3 31.4
03:25 1010 29.83 840 24.81 0.3 32.6 95 -0.4 31.3
03:30 1011 29.85 840 24.81 0.3 32.5 95 -0.4 31.2
03:35 1011 29.85 840 24.81 0.3 32.5 95 -0.4 31.2
03:40 1011 29.85 840 24.81 0.2 32.4 95 -0.4 31.2
03:45 1011 29.85 840 24.81 0.3 32.5 95 -0.4 31.3
03:50 1011 29.85 840 24.81 0.2 32.4 95 -0.5 31.2
03:55 1011 29.85 840 24.81 0.2 32.4 95 -0.4 31.2
04:00 1011 29.85 840 24.81 0.2 32.4 95 -0.4 31.2
04:05 1011 29.85 840 24.81 0.2 32.4 95 -0.4 31.2
04:10 1011 29.85 840 24.81 0.3 32.5 95 -0.4 31.3
04:15 1011 29.85 840 24.81 0.2 32.4 95 -0.4 31.2
04:20 1011 29.85 840 24.81 0.2 32.4 95 -0.4 31.2
04:25 1011 29.85 840 24.81 0.2 32.4 95 -0.4 31.2
04:30 1011 29.85 840 24.81 0.2 32.4 95 -0.4 31.2
04:35 1011 29.85 840 24.81 0.2 32.4 95 -0.5 31.2
04:40 1011 29.85 840 24.81 0.2 32.4 95 -0.4 31.2
04:45 1011 29.85 840 24.81 0.2 32.4 95 -0.4 31.2
04:50 1011 29.85 840 24.81 0.2 32.4 95 -0.4 31.2
04:55 1011 29.85 840 24.81 0.2 32.3 95 -0.5 31.1
05:00 1011 29.85 840 24.81 0.1 32.1 95 -0.6 30.9
05:05 1011 29.85 840 24.81 0.1 32.1 95 -0.6 30.9
05:10 1011 29.85 840 24.81 0 32.1 95 -0.6 30.8
05:15 1011 29.85 841 24.83 0 32 95 -0.7 30.8
05:20 1011 29.85 840 24.81 -0 32 95 -0.7 30.7
05:25 1011 29.85 841 24.83 -0 32 95 -0.7 30.8
05:30 1011 29.85 841 24.83 -0 31.9 95 -0.7 30.7
05:35 1011 29.85 841 24.83 -0.1 31.9 95 -0.7 30.7
05:40 1011 29.85 841 24.83 -0.1 31.8 95 -0.8 30.6
05:45 1011 29.85 841 24.83 -0.1 31.8 95 -0.8 30.6
05:50 1011 29.85 841 24.83 -0.1 31.8 95 -0.7 30.7
05:55 1011 29.85 841 24.83 -0.1 31.9 95 -0.7 30.7
06:00 1011 29.85 841 24.83 -0.1 31.9 95 -0.7 30.7
06:05 1011 29.85 841 24.83 -0.1 31.9 96 -0.7 30.7
06:10 1011 29.85 841 24.83 -0 31.9 95 -0.7 30.8
06:15 1011 29.85 841 24.83 -0 32 96 -0.6 30.9
06:20 1011 29.85 841 24.83 0 32 95 -0.6 30.9
06:25 1011 29.85 841 24.83 -0 32 95 -0.7 30.8
06:30 1011 29.85 841 24.83 -0 32 95 -0.7 30.8
06:35 1011 29.85 841 24.83 0 32.1 95 -0.6 30.9
06:40 1011 29.85 841 24.83 0.1 32.2 95 -0.6 31
06:45 1012 29.88 841 24.83 0.1 32.2 95 -0.5 31
06:50 1012 29.88 841 24.83 0.1 32.2 95 -0.6 30.9
06:55 1012 29.88 841 24.83 0.2 32.3 95 -0.5 31
07:00 1012 29.88 841 24.83 0.2 32.4 95 -0.5 31
07:05 1012 29.88 841 24.83 0.2 32.4 95 -0.5 31.1
07:10 1012 29.88 841 24.83 0.4 32.8 94 -0.4 31.3
07:15 1012 29.88 841 24.83 0.4 32.7 94 -0.5 31.2
07:20 1012 29.88 841 24.83 0.3 32.5 93 -0.8 30.6
07:25 1012 29.88 841 24.83 0.2 32.4 93 -0.8 30.5
07:30 1012 29.88 841 24.83 0.3 32.5 93 -0.8 30.6
07:35 1012 29.88 841 24.83 0.3 32.6 93 -0.7 30.7
07:40 1012 29.88 841 24.83 0.5 32.9 92 -0.7 30.8
07:45 1012 29.88 841 24.83 0.7 33.2 91 -0.6 30.8
07:50 1012 29.88 841 24.83 0.6 33.1 91 -0.7 30.7
07:55 1012 29.88 841 24.83 0.7 33.3 90 -0.7 30.7
08:00 1012 29.88 841 24.83 0.7 33.3 90 -0.7 30.7
08:05 1012 29.88 841 24.83 0.8 33.5 89 -0.7 30.7
08:10 1012 29.88 841 24.83 1 33.7 89 -0.6 30.9
08:15 1012 29.88 841 24.83 1.2 34.2 88 -0.6 30.9
08:20 1012 29.88 841 24.83 1.2 34.1 88 -0.6 30.9
08:25 1012 29.88 841 24.83 1 33.8 89 -0.5 31
08:30 1012 29.88 841 24.83 1.3 34.4 87 -0.6 30.9
08:35 1012 29.88 841 24.83 1.5 34.7 85 -0.7 30.7
08:40 1012 29.88 841 24.83 1.7 35.1 86 -0.4 31.3
08:45 1012 29.88 841 24.83 1.8 35.2 86 -0.3 31.4
08:50 1012 29.88 841 24.83 1.8 35.3 85 -0.5 31.2
08:55 1012 29.88 841 24.83 1.9 35.3 84 -0.5 31.1
09:00 1012 29.88 841 24.83 1.4 34.6 88 -0.4 31.3
09:05 1012 29.88 841 24.83 1.7 35 85 -0.6 30.9
09:10 1012 29.88 841 24.83 1.6 35 86 -0.4 31.2
09:15 1012 29.88 841 24.83 1.4 34.5 88 -0.4 31.3
09:20 1012 29.88 841 24.83 1.3 34.3 88 -0.4 31.2
09:25 1012 29.88 841 24.83 1.5 34.7 88 -0.2 31.6
09:30 1012 29.88 841 24.83 1.6 34.8 87 -0.4 31.2
09:35 1012 29.88 841 24.83 1.5 34.8 88 -0.3 31.5
09:40 1012 29.88 841 24.83 1.6 34.9 87 -0.3 31.5
09:45 1012 29.88 841 24.83 1.8 35.2 86 -0.3 31.4
09:50 1012 29.88 841 24.83 1.9 35.4 86 -0.2 31.6
09:55 1012 29.88 841 24.83 1.8 35.3 87 -0.1 31.9
10:00 1012 29.88 841 24.83 1.7 35.1 88 -0.1 31.9
10:05 1012 29.88 841 24.83 1.9 35.3 86 -0.2 31.7
10:10 1012 29.88 841 24.83 1.9 35.5 87 -0 32
10:15 1012 29.88 841 24.83 2 35.5 87 0.1 32.1
10:20 1012 29.88 841 24.83 2.1 35.8 86 -0.1 31.9
10:25 1012 29.88 841 24.83 2.5 36.5 84 0 32.1
10:30 1012 29.88 841 24.83 2.7 36.8 83 0 32
10:35 1012 29.88 841 24.83 2.6 36.7 82 -0.2 31.7
10:40 1012 29.88 841 24.83 2.5 36.6 81 -0.3 31.4
10:45 1012 29.88 841 24.83 2.7 36.8 82 -0.1 31.9
10:50 1012 29.88 841 24.83 2.7 36.8 85 0.3 32.6
10:55 1012 29.88 841 24.83 1.8 35.2 88 0.1 32.2
11:00 1012 29.88 841 24.83 1.5 34.8 91 0.2 32.3
11:05 1012 29.88 841 24.83 1.7 35.1 90 0.3 32.5
11:10 1012 29.88 841 24.83 1.8 35.2 88 0.1 32.2
11:15 1012 29.88 841 24.83 1.9 35.5 87 0.1 32.1
11:20 1012 29.88 841 24.83 2.4 36.4 85 0.2 32.4
11:25 1012 29.88 841 24.83 2.5 36.4 87 0.5 32.8
11:30 1012 29.88 841 24.83 2.2 35.9 88 0.4 32.7
11:35 1012 29.88 841 24.83 2.4 36.4 86 0.3 32.6
11:40 1012 29.88 841 24.83 2.5 36.5 86 0.4 32.7
11:45 1012 29.88 841 24.83 2.5 36.5 83 -0 31.9
11:50 1012 29.88 841 24.83 2.8 37 82 0.1 32.2
11:55 1012 29.88 841 24.83 3.3 37.9 78 -0.2 31.7
12:00 1012 29.88 841 24.83 3.5 38.2 78 -0.1 31.9
12:05 1012 29.88 841 24.83 3.6 38.5 78 0.1 32.2
12:10 1012 29.88 841 24.83 3.8 38.8 76 -0.1 31.9
12:15 1012 29.88 841 24.83 4.1 39.4 75 0.1 32.1
12:20 1012 29.88 841 24.83 4.5 40.1 72 -0.1 31.8
12:25 1012 29.88 841 24.83 5.3 41.6 71 0.6 33.1
12:30 1012 29.88 841 24.83 6.1 42.9 68 0.6 33.1
12:35 1012 29.88 841 24.83 5.6 42.1 70 0.6 33.1
12:40 1012 29.88 841 24.83 5.6 42 70 0.5 32.9
12:45 1012 29.88 841 24.83 5.4 41.8 66 -0.3 31.4
12:50 1012 29.88 841 24.83 5.1 41.2 68 -0.3 31.4
12:55 1012 29.88 841 24.83 4.9 40.8 69 -0.3 31.4
13:00 1012 29.88 841 24.83 5.2 41.3 67 -0.4 31.3
13:05 1012 29.88 841 24.83 5.2 41.4 68 -0.2 31.6
13:10 1012 29.88 841 24.83 5.6 42.1 64 -0.7 30.7
13:15 1012 29.88 841 24.83 5.5 41.9 65 -0.5 31.1
13:20 1012 29.88 841 24.83 5.6 42.1 63 -0.9 30.3
13:25 1012 29.88 841 24.83 6.2 43.2 66 0.3 32.6
13:30 1012 29.88 841 24.83 7.1 44.7 55 -1.2 29.8
13:35 1012 29.88 841 24.83 6.5 43.7 64 0.1 32.2
13:40 1012 29.88 841 24.83 7 44.5 61 -0.1 31.8
13:45 1012 29.88 841 24.83 7 44.5 64 0.6 33.1
13:50 1012 29.88 841 24.83 7.3 45.1 60 0.2 32.3
13:55 1012 29.88 841 24.83 8.1 46.5 55 -0.4 31.3
14:00 1012 29.88 841 24.83 7.5 45.4 63 0.8 33.5
14:05 1012 29.88 841 24.83 7.6 45.6 62 0.9 33.6
14:10 1012 29.88 841 24.83 7.1 44.9 54 -1.4 29.4
14:15 1012 29.88 841 24.83 6.8 44.2 57 -1.2 29.8
14:20 1012 29.88 841 24.83 7.1 44.7 59 -0.5 31.1
14:25 1012 29.88 841 24.83 8.3 46.9 55 -0.2 31.7
14:30 1012 29.88 841 24.83 8.2 46.7 55 -0.4 31.2
14:35 1012 29.88 841 24.83 6.9 44.4 61 -0 31.9
14:40 1012 29.88 841 24.83 6.8 44.2 57 -1.1 30
14:45 1012 29.88 841 24.83 6.9 44.4 57 -0.9 30.3
14:50 1012 29.88 841 24.83 7.1 44.7 55 -1.3 29.6
14:55 1012 29.88 841 24.83 7.2 44.9 56 -1 30.1
15:00 1012 29.88 841 24.83 7 44.5 54 -1.6 29.1
15:05 1012 29.88 841 24.83 7.4 45.3 54 -1.4 29.5
15:10 1012 29.88 841 24.83 7.3 45.1 55 -1.2 29.8
15:15 1012 29.88 841 24.83 7.3 45.2 53 -1.7 29
15:20 1012 29.88 841 24.83 7.2 44.9 55 -1.3 29.6
15:25 1012 29.88 841 24.83 7.8 46 48 -2.4 27.7
15:30 1012 29.88 841 24.83 8.4 47.2 49 -1.5 29.3
15:35 1012 29.88 841 24.83 8.4 47.1 47 -2.2 28.1
15:40 1012 29.88 841 24.83 8.2 46.7 46 -2.7 27.2
15:45 1012 29.88 841 24.83 8.6 47.6 45 -2.6 27.3
15:50 1012 29.88 841 24.83 8.6 47.4 45 -2.6 27.3
15:55 1012 29.88 841 24.83 8 46.4 46 -2.9 26.8
16:00 1011 29.85 841 24.83 8.3 47 46 -2.5 27.5
16:05 1011 29.85 841 24.83 8 46.3 46 -2.8 26.9
16:10 1011 29.85 841 24.83 8.5 47.4 46 -2.3 27.9
16:15 1011 29.85 841 24.83 8.6 47.4 47 -2.1 28.2
16:20 1011 29.85 841 24.83 8.9 48 44 -2.6 27.3
16:25 1011 29.85 841 24.83 8.7 47.7 43 -3 26.6
16:30 1011 29.85 841 24.83 9.1 48.3 42 -3 26.5
16:35 1011 29.85 841 24.83 10.1 50.3 39 -3 26.6
16:40 1011 29.85 841 24.83 9.8 49.6 43 -2.3 27.9
16:45 1011 29.85 841 24.83 9.4 48.9 44 -2.2 28
16:50 1011 29.85 841 24.83 9 48.3 41 -3.3 26
16:55 1011 29.85 841 24.83 8.2 46.8 45 -3.1 26.4
17:00 1011 29.85 840 24.81 7.9 46.1 45 -3.2 26.3
17:05 1011 29.85 841 24.83 7.9 46.2 45 -3.2 26.2
17:10 1011 29.85 841 24.83 8.2 46.7 42 -3.9 25
17:15 1011 29.85 841 24.83 8.4 47.2 42 -3.6 25.5
17:20 1011 29.85 841 24.83 8.7 47.7 43 -3.2 26.3
17:25 1011 29.85 841 24.83 9.6 49.2 38 -3.9 25
17:30 1011 29.85 840 24.81 9.7 49.4 41 -3 26.6
17:35 1011 29.85 840 24.81 9.7 49.4 39 -3.6 25.6
17:40 1011 29.85 840 24.81 9.6 49.3 40 -3.3 26
17:45 1011 29.85 840 24.81 9.1 48.3 41 -3.3 26.1
17:50 1011 29.85 841 24.83 9.2 48.6 40 -3.6 25.5
17:55 1011 29.85 840 24.81 9.3 48.7 40 -3.5 25.7
18:00 1011 29.85 841 24.83 9.1 48.4 41 -3.4 26
18:05 1011 29.85 841 24.83 9 48.1 42 -3.3 26.1
18:10 1011 29.85 841 24.83 8.7 47.7 45 -2.4 27.6
18:15 1011 29.85 841 24.83 8.3 47 49 -1.8 28.8
18:20 1011 29.85 841 24.83 8 46.3 54 -0.9 30.5
18:25 1011 29.85 841 24.83 7.7 45.8 56 -0.5 31.1
18:30 1011 29.85 841 24.83 7.4 45.3 58 -0.3 31.4
18:35 1011 29.85 841 24.83 7.3 45.2 58 -0.4 31.3
18:40 1011 29.85 841 24.83 7.1 44.7 59 -0.4 31.2
18:45 1012 29.88 841 24.83 6.9 44.4 60 -0.4 31.3
18:50 1012 29.88 841 24.83 6.8 44.2 60 -0.4 31.3
18:55 1012 29.88 841 24.83 6.8 44.3 60 -0.4 31.4
19:00 1012 29.88 841 24.83 6.7 44 61 -0.3 31.4
19:05 1012 29.88 841 24.83 6.6 43.9 61 -0.3 31.5
19:10 1012 29.88 841 24.83 6.5 43.7 62 -0.2 31.6
19:15 1012 29.88 841 24.83 6.4 43.5 63 -0.2 31.6
19:20 1012 29.88 841 24.83 6.2 43.2 63 -0.4 31.3
19:25 1012 29.88 841 24.83 6.2 43.1 64 -0.2 31.7
19:30 1012 29.88 841 24.83 6.1 42.9 65 0 32.1
19:35 1012 29.88 841 24.83 6 42.8 66 0.1 32.2
19:40 1012 29.88 841 24.83 5.8 42.5 67 0.3 32.5
19:45 1012 29.88 841 24.83 5.8 42.4 68 0.4 32.6
19:50 1012 29.88 841 24.83 5.7 42.2 69 0.4 32.8
19:55 1012 29.88 841 24.83 5.6 42.1 70 0.6 33.1
20:00 1012 29.88 841 24.83 5.6 42 70 0.5 32.9
20:05 1012 29.88 841 24.83 5.6 42 71 0.6 33.2
20:10 1012 29.88 841 24.83 5.5 42 71 0.6 33.2
20:15 1012 29.88 841 24.83 5.5 41.9 71 0.7 33.2
20:20 1012 29.88 841 24.83 5.5 41.9 70 0.6 33
20:25 1012 29.88 841 24.83 5.4 41.8 71 0.6 33.2
20:30 1012 29.88 841 24.83 5.4 41.7 71 0.6 33
20:35 1012 29.88 842 24.86 5.4 41.7 71 0.6 33
20:40 1012 29.88 842 24.86 5.4 41.7 70 0.3 32.6
20:45 1012 29.88 842 24.86 5.4 41.7 70 0.4 32.7
20:50 1012 29.88 842 24.86 5.3 41.6 70 0.3 32.5
20:55 1012 29.88 842 24.86 5.3 41.5 70 0.3 32.5
21:00 1012 29.88 842 24.86 5.3 41.5 70 0.2 32.4
21:05 1012 29.88 842 24.86 5.2 41.4 69 0.1 32.2
21:10 1012 29.88 842 24.86 5.2 41.4 69 0 32.1
21:15 1012 29.88 842 24.86 5.2 41.4 69 0 32.1
21:20 1012 29.88 842 24.86 5.2 41.4 69 0.1 32.1
21:25 1012 29.88 842 24.86 5.2 41.4 69 -0 32
21:30 1012 29.88 842 24.86 5.2 41.4 69 0 32.1
21:35 1012 29.88 842 24.86 5.2 41.4 69 0 32
21:40 1012 29.88 842 24.86 5.2 41.4 69 0.1 32.1
21:45 1012 29.88 842 24.86 5.2 41.3 69 0 32
21:50 1012 29.88 842 24.86 5.2 41.3 69 -0.1 31.8
21:55 1012 29.88 841 24.83 5.2 41.4 68 -0.1 31.7
22:00 1012 29.88 841 24.83 5.2 41.4 68 -0.1 31.8
22:05 1012 29.88 841 24.83 5.2 41.3 68 -0.2 31.6
22:10 1012 29.88 841 24.83 5.1 41.2 68 -0.4 31.3
22:15 1012 29.88 841 24.83 5.1 41.2 67 -0.4 31.3
22:20 1012 29.88 841 24.83 5.1 41.2 67 -0.4 31.2
22:25 1012 29.88 841 24.83 5.1 41.1 67 -0.6 31
22:30 1012 29.88 841 24.83 5.1 41.1 67 -0.6 30.9
22:35 1012 29.88 841 24.83 5 41 67 -0.7 30.8
22:40 1012 29.88 841 24.83 5 41 66 -0.7 30.7
22:45 1012 29.88 841 24.83 5 41.1 66 -0.7 30.7
22:50 1012 29.88 841 24.83 5 40.9 67 -0.6 30.9
22:55 1012 29.88 841 24.83 4.8 40.7 68 -0.5 31
23:00 1012 29.88 841 24.83 4.8 40.7 68 -0.6 30.9
23:05 1012 29.88 841 24.83 4.8 40.6 68 -0.5 31.1
23:10 1012 29.88 841 24.83 4.8 40.6 69 -0.4 31.2
23:15 1012 29.88 841 24.83 4.7 40.5 69 -0.4 31.3
23:20 1012 29.88 841 24.83 4.7 40.4 70 -0.3 31.4
23:25 1012 29.88 841 24.83 4.7 40.4 70 -0.3 31.5
23:30 1012 29.88 841 24.83 4.6 40.3 71 -0.2 31.6
23:35 1012 29.88 842 24.86 4.7 40.4 71 -0.1 31.8
23:40 1012 29.88 842 24.86 4.6 40.3 72 -0.1 31.9
23:45 1012 29.88 842 24.86 4.6 40.3 72 -0 32
23:50 1012 29.88 842 24.86 4.6 40.3 72 0 32.1
23:55 1012 29.88 842 24.86 4.6 40.3 73 0.1 32.2
24:00 1012 29.88 841 24.83 4.5 40.2 73 0.2 32.4